Time;durP1;ratioP1;P1;durP2;ratioP2;P2;SDS_P1;SDS_P2;PMS_P1;PMS_P2;Temp;Humidity;BMP_temperature;BMP_pressure;BME280_temperature;BME280_humidity;BME280_pressure;Samples;Min_cycle;Max_cycle;Signal;HPM_P1;HPM_P2
2023/01/02 00:01:18;;;;;;;2.20;1.43;;;14.20;99.90;;;;;;5057542;28;20451;-78
2023/01/02 00:03:46;;;;;;;1.60;1.50;;;14.20;99.90;;;;;;5054888;28;20473;-77
2023/01/02 00:06:16;;;;;;;1.60;1.50;;;14.20;99.90;;;;;;5053605;28;20470;-77
2023/01/02 00:08:46;;;;;;;1.50;1.40;;;14.20;99.90;;;;;;5056862;28;20457;-77
2023/01/02 00:11:15;;;;;;;1.40;1.30;;;14.20;99.90;;;;;;5055804;28;20551;-77
2023/01/02 00:13:44;;;;;;;1.80;1.50;;;14.20;99.90;;;;;;5058356;28;20866;-78
2023/01/02 00:16:12;;;;;;;2.03;1.93;;;14.20;99.90;;;;;;5060995;28;20930;-77
2023/01/02 00:18:41;;;;;;;1.87;1.77;;;14.20;99.90;;;;;;5059605;28;20493;-78
2023/01/02 00:21:09;;;;;;;1.53;1.43;;;14.20;99.90;;;;;;5059642;28;20465;-78
2023/01/02 00:23:38;;;;;;;2.73;1.70;;;14.20;99.90;;;;;;5058989;28;20524;-77
2023/01/02 00:26:08;;;;;;;1.40;1.30;;;14.20;99.90;;;;;;5059796;28;20436;-77
2023/01/02 00:28:36;;;;;;;2.33;1.40;;;14.20;99.90;;;;;;5059147;28;21064;-77
2023/01/02 00:31:10;;;;;;;1.50;1.40;;;14.20;99.90;;;;;;5060942;28;20917;-78
2023/01/02 00:33:39;;;;;;;2.90;1.60;;;14.20;99.90;;;;;;5057277;28;23043;-78
2023/01/02 00:36:09;;;;;;;2.30;1.57;;;14.20;99.90;;;;;;5058001;28;20479;-78
2023/01/02 00:38:37;;;;;;;1.40;1.30;;;14.20;99.90;;;;;;5057173;28;20539;-78
2023/01/02 00:41:07;;;;;;;1.60;1.50;;;14.10;99.90;;;;;;5057842;28;20479;-79
2023/01/02 00:43:35;;;;;;;2.03;1.67;;;14.20;99.90;;;;;;5054102;28;20518;-77
2023/01/02 00:46:04;;;;;;;4.67;1.53;;;14.20;99.90;;;;;;5056157;28;20449;-79
2023/01/02 00:48:39;;;;;;;3.57;1.20;;;14.10;99.90;;;;;;5058100;28;20454;-77
2023/01/02 00:51:08;;;;;;;1.50;1.40;;;14.20;99.90;;;;;;5059269;28;20541;-78
2023/01/02 00:53:36;;;;;;;5.10;1.30;;;14.10;99.90;;;;;;5055112;28;20485;-78
2023/01/02 00:56:07;;;;;;;1.80;1.50;;;14.10;99.90;;;;;;5056233;28;20508;-79
2023/01/02 00:58:35;;;;;;;6.27;2.03;;;14.10;99.90;;;;;;5055916;28;21065;-78
2023/01/02 01:01:03;;;;;;;2.07;1.50;;;14.10;99.90;;;;;;5057566;28;20458;-77
2023/01/02 01:03:32;;;;;;;1.40;1.30;;;14.10;99.90;;;;;;5055437;28;20481;-78
2023/01/02 01:06:05;;;;;;;2.30;1.70;;;14.10;99.90;;;;;;5057548;28;20458;-77
2023/01/02 01:08:34;;;;;;;3.10;1.67;;;14.10;99.90;;;;;;5055569;28;20888;-79
2023/01/02 01:11:08;;;;;;;2.13;1.40;;;14.10;99.90;;;;;;5055137;28;20481;-78
2023/01/02 01:13:36;;;;;;;1.70;1.60;;;14.10;99.90;;;;;;5059060;28;20992;-77
2023/01/02 01:16:06;;;;;;;3.07;1.37;;;14.00;99.90;;;;;;5056751;28;20462;-79
2023/01/02 01:18:34;;;;;;;3.33;1.60;;;14.00;99.90;;;;;;5057372;28;20446;-78
2023/01/02 01:21:06;;;;;;;2.60;1.50;;;14.00;99.90;;;;;;5057162;28;20832;-78
2023/01/02 01:23:35;;;;;;;3.33;1.50;;;13.90;99.90;;;;;;5055166;28;20874;-77
2023/01/02 01:26:05;;;;;;;1.47;1.37;;;13.90;99.90;;;;;;5056696;28;20532;-77
2023/01/02 01:28:34;;;;;;;2.80;1.70;;;14.00;99.90;;;;;;5058132;28;20458;-78
2023/01/02 01:31:03;;;;;;;5.47;2.10;;;14.00;99.90;;;;;;5058654;28;20454;-78
2023/01/02 01:33:31;;;;;;;1.50;1.40;;;14.00;99.90;;;;;;5058284;28;20473;-77
2023/01/02 01:36:04;;;;;;;2.03;1.80;;;14.10;99.90;;;;;;5060456;28;20449;-76
2023/01/02 01:38:32;;;;;;;1.50;1.40;;;14.10;99.90;;;;;;5058920;28;20454;-77
2023/01/02 01:41:01;;;;;;;2.20;1.33;;;14.10;99.90;;;;;;5059764;28;20446;-77
2023/01/02 01:43:42;;;;;;;1.57;1.47;;;14.10;99.90;;;;;;5059144;28;20508;-77
2023/01/02 01:46:20;;;;;;;2.30;1.60;;;14.10;99.90;;;;;;5058213;28;20462;-77
2023/01/02 01:48:52;;;;;;;2.00;1.60;;;14.10;99.90;;;;;;5056991;28;20461;-77
2023/01/02 01:51:22;;;;;;;1.70;1.60;;;14.10;99.90;;;;;;5059019;28;20463;-78
2023/01/02 01:53:55;;;;;;;2.43;1.93;;;14.10;99.90;;;;;;5057943;28;20481;-77
2023/01/02 01:56:23;;;;;;;1.90;1.70;;;14.10;99.90;;;;;;5057980;28;20481;-79
2023/01/02 01:58:53;;;;;;;1.57;1.40;;;14.10;99.90;;;;;;5056908;28;21137;-77
2023/01/02 02:01:21;;;;;;;1.60;1.50;;;14.10;99.90;;;;;;5057502;28;20462;-78
2023/01/02 02:03:50;;;;;;;2.60;1.27;;;14.00;99.90;;;;;;5057343;28;20490;-79
2023/01/02 02:06:19;;;;;;;2.43;1.57;;;14.10;99.90;;;;;;5058045;28;20463;-77
2023/01/02 02:08:55;;;;;;;1.53;1.43;;;14.10;99.90;;;;;;5058087;28;20500;-77
2023/01/02 02:11:23;;;;;;;1.60;1.50;;;14.10;99.90;;;;;;5059108;28;20497;-77
2023/01/02 02:13:58;;;;;;;4.13;1.67;;;14.10;99.90;;;;;;5052589;28;20542;-78
2023/01/02 02:16:36;;;;;;;1.93;1.60;;;14.10;99.90;;;;;;5059401;28;20503;-79
2023/01/02 02:19:37;;;;;;;1.73;1.57;;;14.10;99.90;;;;;;5057520;28;20449;-79
2023/01/02 02:22:31;;;;;;;1.97;1.20;;;14.10;99.90;;;;;;5059334;28;20484;-78
2023/01/02 02:25:32;;;;;;;2.20;1.60;;;14.10;99.90;;;;;;5050146;28;20487;-78
2023/01/02 02:28:36;;;;;;;2.00;1.40;;;14.10;99.90;;;;;;5053915;28;20445;-77
2023/01/02 02:31:12;;;;;;;2.70;1.70;;;14.10;99.90;;;;;;5054872;28;21323;-78
2023/01/02 02:33:46;;;;;;;1.47;1.30;;;14.00;99.90;;;;;;5054565;28;20995;-78
2023/01/02 02:36:19;;;;;;;2.20;1.80;;;14.10;99.90;;;;;;5057055;28;20481;-77
2023/01/02 02:38:57;;;;;;;1.83;1.50;;;14.00;99.90;;;;;;5056435;28;20495;-77
2023/01/02 02:41:33;;;;;;;2.33;1.40;;;14.00;99.90;;;;;;5054445;28;20494;-78
2023/01/02 02:44:24;;;;;;;2.37;1.60;;;14.00;99.90;;;;;;5054884;28;20493;-77
2023/01/02 02:47:00;;;;;;;1.73;1.30;;;14.00;99.90;;;;;;5056569;28;20460;-77
2023/01/02 02:49:41;;;;;;;3.07;1.93;;;13.90;99.90;;;;;;5055493;28;20461;-77
2023/01/02 02:52:16;;;;;;;3.73;2.60;;;14.00;99.90;;;;;;5057958;28;20565;-77
2023/01/02 02:54:49;;;;;;;2.70;1.63;;;14.00;99.90;;;;;;5055994;28;21003;-79
2023/01/02 02:57:19;;;;;;;1.90;1.80;;;14.00;99.90;;;;;;5053126;28;20470;-77
2023/01/02 02:59:47;;;;;;;2.50;1.87;;;14.00;99.90;;;;;;5056338;28;20450;-79
2023/01/02 03:02:17;;;;;;;2.03;1.50;;;13.90;99.90;;;;;;5055543;28;21057;-77
2023/01/02 03:04:50;;;;;;;1.53;1.43;;;13.90;99.90;;;;;;5055638;28;20486;-78
2023/01/02 03:07:26;;;;;;;1.50;1.40;;;14.00;99.90;;;;;;5057201;28;20450;-76
2023/01/02 03:10:08;;;;;;;2.47;1.60;;;13.90;99.90;;;;;;5054203;28;20462;-78
2023/01/02 03:12:49;;;;;;;1.73;1.60;;;13.80;99.90;;;;;;5053486;28;20597;-79
2023/01/02 03:15:25;;;;;;;3.90;1.80;;;13.80;99.90;;;;;;5054187;28;20475;-78
2023/01/02 03:18:04;;;;;;;1.90;1.63;;;13.80;99.90;;;;;;5054454;28;20490;-78
2023/01/02 03:20:37;;;;;;;1.60;1.50;;;13.90;99.90;;;;;;5052973;28;20869;-77
2023/01/02 03:23:10;;;;;;;1.60;1.50;;;13.80;99.90;;;;;;5052887;28;20482;-77
2023/01/02 03:25:40;;;;;;;2.93;1.37;;;13.90;99.90;;;;;;5055334;28;20470;-78
2023/01/02 03:28:09;;;;;;;2.73;2.27;;;13.90;99.90;;;;;;5055614;28;20497;-76
2023/01/02 03:30:39;;;;;;;1.93;1.47;;;13.80;99.90;;;;;;5052974;28;20465;-77
2023/01/02 03:33:13;;;;;;;2.37;2.27;;;13.80;99.90;;;;;;5056029;28;20481;-79
2023/01/02 03:35:46;;;;;;;5.40;1.50;;;13.70;99.90;;;;;;5054136;28;20461;-78
2023/01/02 03:38:20;;;;;;;6.87;1.80;;;13.80;99.90;;;;;;5052274;28;20519;-77
2023/01/02 03:40:56;;;;;;;1.57;1.47;;;13.80;99.90;;;;;;5053315;28;20965;-77
2023/01/02 03:43:29;;;;;;;2.13;1.60;;;13.80;99.90;;;;;;5050652;28;20517;-77
2023/01/02 03:46:04;;;;;;;2.50;1.67;;;13.80;99.90;;;;;;5054097;28;20474;-77
2023/01/02 03:48:39;;;;;;;1.70;1.60;;;13.80;99.90;;;;;;5052084;28;20478;-78
2023/01/02 03:51:07;;;;;;;2.37;1.73;;;13.80;99.90;;;;;;5054705;28;20505;-79
2023/01/02 03:53:39;;;;;;;1.87;1.47;;;13.90;99.90;;;;;;5054298;28;20490;-78
2023/01/02 03:56:23;;;;;;;1.53;1.40;;;13.90;99.90;;;;;;5055375;28;20533;-79
2023/01/02 03:58:55;;;;;;;2.77;1.73;;;13.80;99.90;;;;;;5055235;28;20463;-76
2023/01/02 04:01:32;;;;;;;2.50;2.30;;;13.80;99.90;;;;;;5057106;28;20466;-78
2023/01/02 04:04:09;;;;;;;1.93;1.47;;;13.80;99.90;;;;;;5053115;28;20478;-77
2023/01/02 04:06:42;;;;;;;3.97;1.70;;;13.80;99.90;;;;;;5052818;28;20499;-76
2023/01/02 04:09:13;;;;;;;1.73;1.30;;;13.80;99.90;;;;;;5058743;28;21211;-77
2023/01/02 04:11:46;;;;;;;1.83;1.53;;;13.70;99.90;;;;;;5051563;28;20461;-77
2023/01/02 04:14:18;;;;;;;1.90;1.70;;;13.70;99.90;;;;;;5053382;28;20477;-77
2023/01/02 04:16:49;;;;;;;2.20;1.50;;;13.80;99.90;;;;;;5058675;28;20483;-78
2023/01/02 04:19:24;;;;;;;1.50;1.40;;;13.80;99.90;;;;;;5054328;28;20512;-78
2023/01/02 04:21:55;;;;;;;3.23;1.50;;;13.80;99.90;;;;;;5055627;28;20471;-78
2023/01/02 04:24:31;;;;;;;2.33;1.70;;;13.70;99.90;;;;;;5051874;28;20650;-77
2023/01/02 04:27:03;;;;;;;3.83;1.83;;;13.70;99.90;;;;;;5053390;28;20460;-77
2023/01/02 04:29:32;;;;;;;1.53;1.43;;;13.70;99.90;;;;;;5052470;28;20456;-77
2023/01/02 04:32:04;;;;;;;2.13;1.90;;;13.70;99.90;;;;;;5050769;28;20456;-76
2023/01/02 04:34:37;;;;;;;1.83;1.60;;;13.70;99.90;;;;;;5053455;28;20462;-78
2023/01/02 04:37:05;;;;;;;3.70;2.33;;;13.70;99.90;;;;;;5052067;28;20511;-78
2023/01/02 04:39:35;;;;;;;1.63;1.50;;;13.60;99.90;;;;;;5054012;28;20500;-77
2023/01/02 04:42:03;;;;;;;4.07;1.80;;;13.70;99.90;;;;;;5052873;28;20459;-78
2023/01/02 04:44:31;;;;;;;2.00;1.70;;;13.60;99.90;;;;;;5053088;28;20532;-77
2023/01/02 04:46:59;;;;;;;2.30;1.87;;;13.60;99.90;;;;;;5055457;28;20494;-77
2023/01/02 04:49:28;;;;;;;2.83;2.07;;;13.50;99.90;;;;;;5053428;28;20480;-77
2023/01/02 04:51:58;;;;;;;3.03;1.93;;;13.50;99.90;;;;;;5052882;28;20470;-77
2023/01/02 04:54:26;;;;;;;1.93;1.80;;;13.40;99.90;;;;;;5052241;28;20471;-77
2023/01/02 04:56:54;;;;;;;2.73;2.00;;;13.40;99.90;;;;;;5054544;28;20514;-77
2023/01/02 04:59:22;;;;;;;1.70;1.60;;;13.50;99.90;;;;;;5054376;28;20489;-77
2023/01/02 05:01:50;;;;;;;4.07;1.63;;;13.60;99.90;;;;;;5054590;28;20878;-76
2023/01/02 05:04:19;;;;;;;2.87;1.50;;;13.60;99.90;;;;;;5057312;28;20536;-76
2023/01/02 05:06:47;;;;;;;2.63;1.40;;;13.60;99.90;;;;;;5057509;28;20475;-77
2023/01/02 05:09:16;;;;;;;1.63;1.53;;;13.60;99.90;;;;;;5056270;28;21125;-77
2023/01/02 05:11:44;;;;;;;2.07;1.70;;;13.60;99.90;;;;;;5056143;28;20743;-77
2023/01/02 05:14:12;;;;;;;1.60;1.50;;;13.60;99.90;;;;;;5058022;28;20514;-79
2023/01/02 05:16:40;;;;;;;4.53;1.77;;;13.60;99.90;;;;;;5056833;28;20511;-78
2023/01/02 05:19:08;;;;;;;4.30;1.90;;;13.60;99.90;;;;;;5057997;28;21000;-77
2023/01/02 05:24:25;;;;;;;1.90;1.60;;;13.50;99.90;;;;;;5054371;28;20544;-78
2023/01/02 05:26:53;;;;;;;3.27;1.80;;;13.60;99.90;;;;;;5056494;28;21267;-78
2023/01/02 05:29:21;;;;;;;1.97;1.63;;;13.60;99.90;;;;;;5056684;28;21126;-78
2023/01/02 05:31:50;;;;;;;2.33;1.87;;;13.50;99.90;;;;;;5058344;28;20454;-78
2023/01/02 05:34:20;;;;;;;2.77;1.90;;;13.50;99.90;;;;;;5058618;28;20494;-76
2023/01/02 05:36:49;;;;;;;2.63;1.63;;;13.60;99.90;;;;;;5054360;28;20458;-78
2023/01/02 05:39:17;;;;;;;3.37;1.70;;;13.50;99.90;;;;;;5056234;28;20468;-78
2023/01/02 05:41:46;;;;;;;2.57;1.53;;;13.50;99.90;;;;;;5057229;28;20481;-77
2023/01/02 05:44:14;;;;;;;5.13;2.13;;;13.50;99.90;;;;;;5057446;28;20470;-78
2023/01/02 05:46:42;;;;;;;4.03;1.53;;;13.50;99.90;;;;;;5054746;28;20469;-77
2023/01/02 05:49:11;;;;;;;2.73;1.80;;;13.50;99.90;;;;;;5054919;28;20524;-76
2023/01/02 05:51:39;;;;;;;3.63;1.83;;;13.60;99.90;;;;;;5056872;28;20459;-74
2023/01/02 05:54:08;;;;;;;1.80;1.70;;;13.50;99.90;;;;;;5055407;28;20493;-78
2023/01/02 05:56:36;;;;;;;5.80;1.73;;;13.50;99.90;;;;;;5055493;28;20690;-77
2023/01/02 05:59:08;;;;;;;4.00;2.50;;;13.40;99.90;;;;;;5055412;28;20456;-77
2023/01/02 06:01:36;;;;;;;2.30;2.13;;;13.40;99.90;;;;;;5058758;28;20514;-78
2023/01/02 06:04:04;;;;;;;3.63;2.13;;;13.40;99.90;;;;;;5050463;28;20486;-79
2023/01/02 06:06:35;;;;;;;2.23;2.03;;;13.40;99.90;;;;;;5057646;28;20482;-78
2023/01/02 06:09:05;;;;;;;4.50;2.27;;;13.30;99.90;;;;;;5057293;28;20474;-77
2023/01/02 06:11:34;;;;;;;2.43;2.20;;;13.30;99.90;;;;;;5057346;28;20463;-79
2023/01/02 06:14:02;;;;;;;2.87;1.93;;;13.30;99.90;;;;;;5055882;28;20470;-77
2023/01/02 06:16:31;;;;;;;4.43;1.70;;;13.30;99.90;;;;;;5056555;28;20495;-77
2023/01/02 06:19:00;;;;;;;1.80;1.70;;;13.30;99.90;;;;;;5055888;28;20548;-78
2023/01/02 06:21:28;;;;;;;2.27;2.07;;;13.30;99.90;;;;;;5056359;28;20464;-78
2023/01/02 06:23:57;;;;;;;2.70;1.60;;;13.30;99.90;;;;;;5059243;28;20523;-78
2023/01/02 06:26:27;;;;;;;3.97;2.43;;;13.30;99.90;;;;;;5057541;28;21249;-76
2023/01/02 06:29:02;;;;;;;2.77;2.07;;;13.20;99.90;;;;;;5057236;28;20452;-77
2023/01/02 06:31:32;;;;;;;2.10;1.60;;;13.30;99.90;;;;;;5055327;28;20444;-78
2023/01/02 06:34:02;;;;;;;3.40;2.53;;;13.20;99.90;;;;;;5053287;28;20564;-78
2023/01/02 06:36:32;;;;;;;2.37;1.63;;;13.30;99.90;;;;;;5054916;28;20447;-78
2023/01/02 06:39:00;;;;;;;2.07;1.77;;;13.20;99.90;;;;;;5055094;28;20466;-78
2023/01/02 06:41:28;;;;;;;2.00;1.80;;;13.20;1.00;;;;;;5057919;28;20492;-78
2023/01/02 06:43:56;;;;;;;3.47;1.70;;;13.10;1.00;;;;;;5058054;28;20889;-78
2023/01/02 06:46:24;;;;;;;3.10;1.80;;;13.10;99.90;;;;;;5055620;28;21280;-78
2023/01/02 06:48:54;;;;;;;3.83;1.90;;;13.10;1.00;;;;;;5056558;28;20518;-77
2023/01/02 06:51:23;;;;;;;2.47;2.20;;;13.10;99.90;;;;;;5054660;28;20457;-78
2023/01/02 06:53:51;;;;;;;9.93;2.40;;;13.10;99.90;;;;;;5056000;28;20482;-76
2023/01/02 06:56:20;;;;;;;3.20;1.80;;;13.20;1.00;;;;;;5054524;28;20445;-78
2023/01/02 06:58:48;;;;;;;2.00;1.87;;;13.10;1.00;;;;;;5058331;28;20460;-77
2023/01/02 07:01:20;;;;;;;1.93;1.70;;;13.00;99.90;;;;;;5054507;28;20467;-78
2023/01/02 07:03:49;;;;;;;2.97;1.87;;;13.10;99.90;;;;;;5057371;28;20476;-78
2023/01/02 07:06:20;;;;;;;2.70;1.80;;;13.00;1.00;;;;;;5057721;28;20470;-76
2023/01/02 07:08:49;;;;;;;3.13;2.17;;;12.90;1.00;;;;;;5055413;28;20445;-76
2023/01/02 07:11:19;;;;;;;2.87;1.83;;;12.80;99.90;;;;;;5053103;28;20447;-76
2023/01/02 07:13:49;;;;;;;2.37;1.80;;;12.80;1.00;;;;;;5053100;28;20815;-77
2023/01/02 07:16:19;;;;;;;3.20;2.17;;;12.70;1.00;;;;;;5056207;28;20437;-78
2023/01/02 07:18:48;;;;;;;3.00;1.93;;;12.80;99.90;;;;;;5056056;28;20514;-77
2023/01/02 07:21:18;;;;;;;2.43;1.73;;;12.90;99.90;;;;;;5057642;28;20455;-77
2023/01/02 07:23:46;;;;;;;6.00;2.20;;;12.90;99.90;;;;;;5055104;28;20479;-77
2023/01/02 07:26:15;;;;;;;1.93;1.60;;;13.00;99.90;;;;;;5057439;28;20474;-78
2023/01/02 07:28:43;;;;;;;2.53;2.33;;;13.00;99.90;;;;;;5056056;28;20443;-77
2023/01/02 07:31:13;;;;;;;2.30;2.07;;;13.00;99.90;;;;;;5056561;28;20495;-77
2023/01/02 07:33:42;;;;;;;1.80;1.70;;;13.10;99.90;;;;;;5055561;28;21158;-79
2023/01/02 07:36:13;;;;;;;2.33;1.70;;;13.20;99.90;;;;;;5055348;28;20453;-77
2023/01/02 07:38:42;;;;;;;2.13;1.57;;;13.10;99.90;;;;;;5055675;28;20473;-79
2023/01/02 07:41:14;;;;;;;3.73;2.13;;;13.10;99.90;;;;;;5055040;28;21185;-78
2023/01/02 07:43:44;;;;;;;2.60;2.40;;;13.00;99.90;;;;;;5055801;28;20474;-78
2023/01/02 07:46:12;;;;;;;4.13;2.37;;;13.10;99.90;;;;;;5054746;28;20461;-78
2023/01/02 07:48:41;;;;;;;3.63;2.10;;;13.20;99.90;;;;;;5057664;28;20461;-77
2023/01/02 07:51:09;;;;;;;3.40;1.90;;;13.10;99.90;;;;;;5055988;28;20536;-78
2023/01/02 07:53:38;;;;;;;4.60;2.20;;;13.10;99.90;;;;;;5054891;28;21031;-77
2023/01/02 07:56:08;;;;;;;3.77;3.00;;;12.90;99.90;;;;;;5056022;28;20669;-78
2023/01/02 07:58:36;;;;;;;2.83;2.53;;;13.10;99.90;;;;;;5053307;28;20508;-77
2023/01/02 08:01:09;;;;;;;4.07;2.10;;;13.10;99.90;;;;;;5055089;28;20445;-78
2023/01/02 08:03:37;;;;;;;3.70;2.00;;;13.10;99.90;;;;;;5054639;28;20820;-78
2023/01/02 08:06:07;;;;;;;2.87;2.50;;;13.00;99.90;;;;;;5055150;28;20452;-77
2023/01/02 08:08:36;;;;;;;5.53;1.97;;;13.00;99.90;;;;;;5057336;28;20518;-77
2023/01/02 08:11:07;;;;;;;6.50;2.00;;;13.00;99.90;;;;;;5057256;28;20452;-77
2023/01/02 08:13:35;;;;;;;4.13;2.40;;;12.90;99.90;;;;;;5056031;28;20465;-77
2023/01/02 08:16:05;;;;;;;2.80;1.97;;;13.00;99.90;;;;;;5056365;28;20513;-77
2023/01/02 08:18:33;;;;;;;2.77;2.00;;;13.00;99.90;;;;;;5054701;28;20463;-76
2023/01/02 08:21:01;;;;;;;5.37;2.47;;;13.10;99.90;;;;;;5055435;28;20462;-78
2023/01/02 08:23:29;;;;;;;2.60;2.40;;;13.10;99.90;;;;;;5056218;28;20481;-78
2023/01/02 08:25:58;;;;;;;4.50;1.93;;;13.10;99.90;;;;;;5055729;28;20461;-80
2023/01/02 08:28:28;;;;;;;1.90;1.80;;;13.10;99.90;;;;;;5055244;28;20470;-77
2023/01/02 08:30:57;;;;;;;3.33;1.90;;;13.10;99.90;;;;;;5059421;28;20467;-74
2023/01/02 08:33:25;;;;;;;4.13;2.20;;;13.00;99.90;;;;;;5055931;28;20513;-78
2023/01/02 08:35:55;;;;;;;1.73;1.63;;;13.00;99.90;;;;;;5056106;28;21099;-78
2023/01/02 08:38:23;;;;;;;4.33;2.30;;;13.10;99.90;;;;;;5058969;28;20483;-77
2023/01/02 08:40:51;;;;;;;3.80;2.17;;;13.00;99.90;;;;;;5060002;28;20543;-77
2023/01/02 08:43:19;;;;;;;4.37;2.00;;;13.10;99.90;;;;;;5058770;28;20469;-77
2023/01/02 08:45:49;;;;;;;4.13;2.10;;;13.20;99.90;;;;;;5059412;28;20953;-77
2023/01/02 08:48:17;;;;;;;2.47;1.73;;;13.10;99.90;;;;;;5058122;28;20617;-77
2023/01/02 08:50:48;;;;;;;4.20;2.00;;;13.20;99.90;;;;;;5057227;28;20448;-79
2023/01/02 08:53:17;;;;;;;1.97;1.80;;;13.10;99.90;;;;;;5053944;28;20476;-78
2023/01/02 08:55:45;;;;;;;3.37;1.67;;;13.20;99.90;;;;;;5060280;28;20930;-77
2023/01/02 08:58:13;;;;;;;2.23;2.00;;;13.30;99.90;;;;;;5055337;28;20940;-77
2023/01/02 09:00:42;;;;;;;2.50;1.70;;;13.30;99.90;;;;;;5057032;28;20480;-77
2023/01/02 09:03:11;;;;;;;4.20;1.73;;;13.40;99.90;;;;;;5056564;28;20476;-76
2023/01/02 09:05:39;;;;;;;3.50;2.40;;;13.50;99.90;;;;;;5062231;28;20463;-76
2023/01/02 09:08:08;;;;;;;3.20;1.70;;;13.50;99.90;;;;;;5054953;28;20984;-77
2023/01/02 09:10:36;;;;;;;4.27;1.83;;;13.60;99.90;;;;;;5056466;28;20458;-77
2023/01/02 09:13:04;;;;;;;6.07;1.80;;;13.60;99.90;;;;;;5053369;28;20480;-77
2023/01/02 09:15:32;;;;;;;5.67;2.20;;;13.60;99.90;;;;;;5060689;28;20459;-77
2023/01/02 09:18:01;;;;;;;2.30;2.10;;;13.60;99.90;;;;;;5058880;28;21016;-77
2023/01/02 09:20:30;;;;;;;5.27;2.00;;;13.50;99.90;;;;;;5052509;28;20451;-79
2023/01/02 09:22:58;;;;;;;5.80;1.93;;;13.60;99.90;;;;;;5060284;28;21008;-78
2023/01/02 09:25:26;;;;;;;1.83;1.70;;;13.70;99.90;;;;;;5059203;28;20466;-78
2023/01/02 09:27:55;;;;;;;3.93;2.30;;;13.60;99.90;;;;;;5058526;28;20519;-79
2023/01/02 09:30:23;;;;;;;2.10;1.60;;;13.70;99.90;;;;;;5058114;28;20472;-78
2023/01/02 09:32:51;;;;;;;4.70;2.33;;;13.90;99.90;;;;;;5056470;28;21013;-77
2023/01/02 09:35:19;;;;;;;3.27;2.20;;;13.90;99.90;;;;;;5056943;28;20837;-77
2023/01/02 09:37:49;;;;;;;1.80;1.70;;;14.00;99.90;;;;;;5056368;28;20549;-77
2023/01/02 09:40:17;;;;;;;2.30;1.97;;;14.00;99.90;;;;;;5059800;28;20492;-78
2023/01/02 09:42:45;;;;;;;4.17;2.47;;;14.00;99.90;;;;;;5050199;28;20492;-78
2023/01/02 09:45:14;;;;;;;3.70;2.10;;;14.00;99.90;;;;;;5058115;28;21035;-78
2023/01/02 09:47:46;;;;;;;3.73;1.60;;;13.90;99.90;;;;;;5053057;28;20488;-77
2023/01/02 09:50:18;;;;;;;2.63;2.20;;;13.90;99.90;;;;;;5059381;28;20464;-78
2023/01/02 09:52:54;;;;;;;2.20;1.97;;;14.00;99.90;;;;;;5054639;28;20526;-77
2023/01/02 09:55:32;;;;;;;2.00;1.90;;;14.10;99.90;;;;;;5054827;28;20506;-77
2023/01/02 09:58:09;;;;;;;2.57;2.00;;;14.10;99.90;;;;;;5056244;28;20454;-77
2023/01/02 10:00:38;;;;;;;4.30;2.20;;;14.20;99.90;;;;;;5054167;28;20566;-77
2023/01/02 10:03:17;;;;;;;2.20;2.00;;;14.30;99.90;;;;;;5055218;28;20473;-77
2023/01/02 10:06:04;;;;;;;6.77;2.07;;;14.40;99.90;;;;;;5057177;28;20446;-76
2023/01/02 10:08:43;;;;;;;2.53;2.33;;;14.50;99.90;;;;;;5060274;28;21009;-78
2023/01/02 10:11:25;;;;;;;3.23;1.60;;;14.90;99.90;;;;;;5053652;28;20460;-78
2023/01/02 10:13:58;;;;;;;2.50;2.30;;;15.10;99.90;;;;;;5052717;28;20478;-78
2023/01/02 10:16:50;;;;;;;3.03;1.87;;;15.20;99.90;;;;;;5050434;28;20958;-77
2023/01/02 10:19:23;;;;;;;1.97;1.77;;;15.40;99.90;;;;;;5054538;28;20472;-79
2023/01/02 10:21:55;;;;;;;2.30;2.10;;;15.70;99.90;;;;;;5054798;28;20490;-76
2023/01/02 10:24:34;;;;;;;1.80;1.70;;;15.80;99.90;;;;;;5053413;28;20451;-77
2023/01/02 10:27:05;;;;;;;2.63;1.60;;;15.70;99.90;;;;;;5055753;28;20978;-78
2023/01/02 10:29:39;;;;;;;4.73;1.70;;;15.60;99.90;;;;;;5056428;28;20467;-79
2023/01/02 10:32:14;;;;;;;3.33;1.97;;;15.70;99.90;;;;;;5055001;28;21045;-78
2023/01/02 10:34:48;;;;;;;3.47;1.80;;;15.90;99.90;;;;;;5055366;28;20806;-78
2023/01/02 10:37:18;;;;;;;2.10;1.90;;;16.00;99.90;;;;;;5056274;28;20460;-77
2023/01/02 10:39:50;;;;;;;4.83;2.13;;;16.10;99.90;;;;;;5057202;28;20536;-78
2023/01/02 10:42:19;;;;;;;2.80;1.83;;;16.30;99.90;;;;;;5057475;28;20464;-78
2023/01/02 10:44:47;;;;;;;2.70;2.40;;;16.40;99.90;;;;;;5056020;28;20442;-78
2023/01/02 10:47:21;;;;;;;5.03;2.13;;;16.80;99.90;;;;;;5052449;28;20966;-79
2023/01/02 10:49:52;;;;;;;3.67;1.77;;;17.10;99.90;;;;;;5052026;28;20527;-78
2023/01/02 10:52:25;;;;;;;2.53;1.87;;;17.40;99.90;;;;;;5053148;28;20687;-78
2023/01/02 10:54:56;;;;;;;3.73;1.90;;;17.70;99.90;;;;;;5054617;28;20459;-78
2023/01/02 10:57:38;;;;;;;3.10;1.70;;;17.90;99.90;;;;;;5058484;28;20462;-76
2023/01/02 11:00:08;;;;;;;2.93;1.60;;;18.00;99.90;;;;;;5053838;28;20445;-78
2023/01/02 11:02:39;;;;;;;6.10;2.13;;;18.10;99.90;;;;;;5053448;28;20502;-78
2023/01/02 11:05:26;;;;;;;5.97;2.00;;;18.20;99.90;;;;;;5050314;28;20477;-77
2023/01/02 11:07:54;;;;;;;6.00;2.17;;;18.20;99.90;;;;;;5057275;28;20552;-77
2023/01/02 11:10:28;;;;;;;3.87;2.00;;;18.10;99.90;;;;;;5056312;28;20474;-78
2023/01/02 11:12:56;;;;;;;2.80;1.87;;;18.00;99.90;;;;;;5053496;28;20512;-78
2023/01/02 11:15:27;;;;;;;4.57;2.37;;;18.20;99.90;;;;;;5054359;28;20460;-77
2023/01/02 11:17:55;;;;;;;2.70;1.70;;;18.30;99.90;;;;;;5052845;28;20942;-77
2023/01/02 11:20:27;;;;;;;3.07;1.60;;;18.30;99.90;;;;;;5058092;28;20443;-77
2023/01/02 11:23:00;;;;;;;3.40;1.80;;;18.40;99.90;;;;;;5052672;28;21071;-78
2023/01/02 11:25:36;;;;;;;3.43;1.83;;;18.30;99.90;;;;;;5050851;28;20537;-77
2023/01/02 11:28:05;;;;;;;3.90;1.80;;;18.00;99.90;;;;;;5053221;28;20463;-77
2023/01/02 11:30:38;;;;;;;3.63;1.80;;;17.50;99.90;;;;;;5053593;28;20535;-77
2023/01/02 11:33:18;;;;;;;8.30;3.00;;;17.30;99.90;;;;;;5050239;28;20493;-77
2023/01/02 11:35:48;;;;;;;4.33;1.80;;;17.20;99.90;;;;;;5053907;28;20459;-78
2023/01/02 11:38:19;;;;;;;1.97;1.40;;;17.10;99.90;;;;;;5055275;28;20473;-79
2023/01/02 11:41:01;;;;;;;7.77;3.00;;;17.10;99.90;;;;;;5054531;28;20501;-78
2023/01/02 11:43:50;;;;;;;5.00;2.43;;;17.20;99.90;;;;;;5053847;28;20509;-77
2023/01/02 11:46:28;;;;;;;4.40;1.60;;;17.00;99.90;;;;;;5055607;28;20446;-77
2023/01/02 11:49:02;;;;;;;3.50;2.00;;;17.00;99.90;;;;;;5051155;28;21101;-78
2023/01/02 11:51:33;;;;;;;3.03;2.73;;;16.80;99.90;;;;;;5053445;28;20461;-78
2023/01/02 11:54:06;;;;;;;3.53;1.70;;;16.80;99.90;;;;;;5055161;28;21134;-76
2023/01/02 11:56:39;;;;;;;4.37;1.77;;;16.60;99.90;;;;;;5057005;28;20544;-77
2023/01/02 11:59:17;;;;;;;2.67;2.03;;;16.60;99.90;;;;;;5055725;28;20899;-77
2023/01/02 12:01:55;;;;;;;3.23;2.40;;;16.50;99.90;;;;;;5055812;28;20457;-77
2023/01/02 12:04:24;;;;;;;2.50;1.80;;;16.40;99.90;;;;;;5055850;28;20481;-77
2023/01/02 12:07:07;;;;;;;4.03;1.70;;;16.40;99.90;;;;;;5054937;28;20460;-77
2023/01/02 12:09:48;;;;;;;3.53;1.67;;;16.30;99.90;;;;;;5051253;28;20911;-77
2023/01/02 12:12:42;;;;;;;3.00;2.00;;;16.30;99.90;;;;;;5054138;28;20549;-78
2023/01/02 12:15:37;;;;;;;3.07;1.80;;;16.30;99.90;;;;;;5053908;28;20457;-77
2023/01/02 12:18:16;;;;;;;4.33;2.03;;;16.40;99.90;;;;;;5056251;28;20442;-76
2023/01/02 12:20:52;;;;;;;6.80;2.00;;;16.50;99.90;;;;;;5053344;28;20433;-77
2023/01/02 12:23:46;;;;;;;3.90;1.73;;;16.50;99.90;;;;;;5053316;28;21052;-75
2023/01/02 12:26:18;;;;;;;4.67;2.53;;;16.50;99.90;;;;;;5050332;28;20980;-77
2023/01/02 12:29:08;;;;;;;3.20;1.90;;;16.50;99.90;;;;;;5054869;28;20457;-77
2023/01/02 12:32:07;;;;;;;6.80;1.87;;;16.50;99.90;;;;;;5053461;28;20540;-78
2023/01/02 12:34:54;;;;;;;2.97;1.70;;;16.50;99.90;;;;;;5052191;28;20461;-77
2023/01/02 12:37:33;;;;;;;6.87;2.40;;;16.70;99.90;;;;;;5051871;28;20461;-79
2023/01/02 12:40:35;;;;;;;13.03;2.23;;;16.80;99.90;;;;;;5066696;28;20480;-77
2023/01/02 12:43:39;;;;;;;6.90;2.40;;;16.80;99.90;;;;;;5043613;28;20488;-78
2023/01/02 12:46:28;;;;;;;5.67;1.90;;;16.90;99.90;;;;;;5053039;28;21108;-78
2023/01/02 12:49:13;;;;;;;2.70;1.70;;;16.90;99.90;;;;;;5054505;28;20506;-78
2023/01/02 12:51:49;;;;;;;8.30;2.17;;;16.90;99.90;;;;;;5053484;28;20466;-78
2023/01/02 12:54:34;;;;;;;5.90;2.13;;;16.80;99.90;;;;;;5049720;28;20492;-78
2023/01/02 12:57:09;;;;;;;5.67;1.73;;;16.90;99.90;;;;;;5051902;28;20468;-76
2023/01/02 13:00:13;;;;;;;4.13;1.90;;;16.80;99.90;;;;;;5051775;28;20540;-77
2023/01/02 13:03:01;;;;;;;7.47;1.90;;;16.80;99.90;;;;;;5049915;28;20473;-78
2023/01/02 13:05:35;;;;;;;4.37;2.30;;;16.80;99.90;;;;;;5049068;28;20521;-78
2023/01/02 13:08:07;;;;;;;4.63;2.20;;;16.90;99.90;;;;;;5048636;28;20492;-78
2023/01/02 13:10:36;;;;;;;6.13;1.80;;;16.90;99.90;;;;;;5053436;28;20495;-76
2023/01/02 13:13:04;;;;;;;3.40;2.00;;;16.90;99.90;;;;;;5052025;28;20486;-77
2023/01/02 13:15:36;;;;;;;8.43;2.20;;;16.90;99.90;;;;;;5049612;28;20748;-77
2023/01/02 13:18:09;;;;;;;5.77;2.10;;;16.90;99.90;;;;;;5051957;28;20460;-77